createdAt,value
2023-04-18T00:02:01.305Z,7.07
2023-04-18T00:04:28.227Z,7.60
2023-04-18T00:06:55.068Z,7.20
2023-04-18T00:09:21.255Z,7.30
2023-04-18T00:11:47.637Z,7.07
2023-04-18T00:14:13.978Z,6.80
2023-04-18T00:16:40.265Z,7.20
2023-04-18T00:19:07.909Z,6.93
2023-04-18T00:21:35.330Z,7.47
2023-04-18T00:24:01.463Z,7.20
2023-04-18T00:26:27.657Z,7.20
2023-04-18T00:28:53.898Z,7.47
2023-04-18T00:31:20.080Z,7.00
2023-04-18T00:33:46.233Z,6.80
2023-04-18T00:36:12.682Z,6.60
2023-04-18T00:38:39.567Z,7.03
2023-04-18T00:41:05.769Z,6.70
2023-04-18T00:43:34.242Z,7.80
2023-04-18T00:46:00.881Z,7.47
2023-04-18T00:48:27.194Z,8.40
2023-04-18T00:50:53.510Z,7.47
2023-04-18T00:53:19.797Z,7.57
2023-04-18T00:55:47.197Z,7.90
2023-04-18T00:58:13.954Z,7.80
2023-04-18T01:00:40.665Z,8.60
2023-04-18T01:03:07.804Z,8.53
2023-04-18T01:05:35.397Z,8.80
2023-04-18T01:08:02.236Z,7.80
2023-04-18T01:10:29.296Z,8.00
2023-04-18T01:13:10.881Z,8.17
2023-04-18T01:15:37.109Z,8.53
2023-04-18T01:18:03.644Z,9.03
2023-04-18T01:20:31.586Z,8.67
2023-04-18T01:22:58.387Z,8.37
2023-04-18T01:25:25.506Z,7.77
2023-04-18T01:27:53.512Z,8.80
2023-04-18T01:30:20.227Z,8.97
2023-04-18T01:32:46.522Z,8.83
2023-04-18T01:35:12.740Z,8.60
2023-04-18T01:37:38.870Z,8.90
2023-04-18T01:40:06.252Z,8.93
2023-04-18T01:42:33.011Z,9.70
2023-04-18T01:44:59.265Z,8.73
2023-04-18T01:47:25.402Z,8.83
2023-04-18T01:49:51.663Z,9.40
2023-04-18T01:52:17.783Z,9.77
2023-04-18T01:54:44.061Z,9.33
2023-04-18T01:57:10.188Z,10.00
2023-04-18T01:59:36.968Z,9.80
2023-04-18T02:02:03.312Z,9.03
2023-04-18T02:04:29.675Z,9.57
2023-04-18T02:06:55.969Z,9.13
2023-04-18T02:09:22.078Z,9.83
2023-04-18T02:11:48.184Z,9.57
2023-04-18T02:14:14.610Z,9.27
2023-04-18T02:16:41.696Z,9.43
2023-04-18T02:19:07.834Z,9.37
2023-04-18T02:21:33.988Z,9.97
2023-04-18T02:24:00.169Z,10.63
2023-04-18T02:26:26.383Z,9.20
2023-04-18T02:28:52.536Z,10.00
2023-04-18T02:31:18.716Z,9.93
2023-04-18T02:33:46.374Z,9.57
2023-04-18T02:36:12.649Z,10.27
2023-04-18T02:38:38.765Z,10.03
2023-04-18T02:41:04.890Z,9.57
2023-04-18T02:43:31.081Z,10.47
2023-04-18T02:45:57.267Z,9.50
2023-04-18T02:48:23.613Z,9.23
2023-04-18T02:50:50.434Z,10.00
2023-04-18T02:53:16.585Z,9.70
2023-04-18T02:55:42.937Z,9.57
2023-04-18T02:58:09.226Z,9.33
2023-04-18T03:00:35.608Z,9.37
2023-04-18T03:03:01.843Z,9.73
2023-04-18T03:05:28.038Z,10.00
2023-04-18T03:07:54.788Z,10.17
2023-04-18T03:10:20.938Z,9.33
2023-04-18T03:12:47.149Z,9.60
2023-04-18T03:15:13.273Z,10.90
2023-04-18T03:17:39.464Z,9.97
2023-04-18T03:20:07.254Z,9.90
2023-04-18T03:22:33.511Z,10.67
2023-04-18T03:25:00.395Z,9.83
2023-04-18T03:27:26.631Z,9.80
2023-04-18T03:29:52.798Z,10.43
2023-04-18T03:32:19.025Z,10.43
2023-04-18T03:34:45.418Z,9.77
2023-04-18T03:37:11.614Z,10.10
2023-04-18T03:39:37.801Z,10.20
2023-04-18T03:42:04.594Z,9.77
2023-04-18T03:44:30.786Z,11.03
2023-04-18T03:46:56.932Z,11.10
2023-04-18T03:49:23.097Z,10.07
2023-04-18T03:51:49.468Z,9.83
2023-04-18T03:54:16.500Z,10.80
2023-04-18T03:56:43.189Z,10.60
2023-04-18T03:59:10.154Z,11.00
2023-04-18T04:01:36.586Z,10.27
2023-04-18T04:04:03.185Z,10.67
2023-04-18T04:06:30.438Z,9.83
2023-04-18T04:08:56.819Z,10.57
2023-04-18T04:11:23.062Z,12.00
2023-04-18T04:13:49.305Z,10.80
2023-04-18T04:16:16.210Z,11.00
2023-04-18T04:18:42.338Z,10.57
2023-04-18T04:21:08.690Z,10.13
2023-04-18T04:23:35.004Z,10.30
2023-04-18T04:26:03.423Z,10.10
2023-04-18T04:28:30.266Z,11.13
2023-04-18T04:30:56.886Z,10.50
2023-04-18T04:33:24.835Z,10.43
2023-04-18T04:35:51.540Z,9.77
2023-04-18T04:38:19.177Z,10.03
2023-04-18T04:40:45.561Z,10.17
2023-04-18T04:43:14.454Z,10.33
2023-04-18T04:45:40.803Z,10.03
2023-04-18T04:48:07.081Z,10.47
2023-04-18T04:50:36.583Z,10.10
2023-04-18T04:53:02.758Z,9.63
2023-04-18T04:55:28.931Z,9.13
2023-04-18T04:57:55.187Z,9.50
2023-04-18T05:00:21.549Z,9.60
2023-04-18T05:02:47.905Z,9.60
2023-04-18T05:05:14.382Z,10.30
2023-04-18T05:07:41.118Z,9.67
2023-04-18T05:10:07.929Z,9.83
2023-04-18T05:12:34.053Z,10.90
2023-04-18T05:15:00.168Z,10.07
2023-04-18T05:17:26.286Z,10.43
2023-04-18T05:19:52.511Z,10.77
2023-04-18T05:22:18.642Z,10.60
2023-04-18T05:24:46.117Z,10.57
2023-04-18T05:27:12.266Z,10.73
2023-04-18T05:29:38.369Z,10.30
2023-04-18T05:32:05.961Z,11.00
2023-04-18T05:34:32.357Z,9.60
2023-04-18T05:36:58.601Z,10.80
2023-04-18T05:39:24.897Z,11.17
2023-04-18T05:41:51.976Z,10.43
2023-04-18T05:44:19.102Z,10.73
2023-04-18T05:46:45.547Z,11.77
2023-04-18T05:49:11.735Z,10.47
2023-04-18T05:51:38.105Z,10.80
2023-04-18T05:54:04.355Z,10.40
2023-04-18T05:56:30.471Z,11.20
2023-04-18T05:58:57.435Z,11.10
2023-04-18T06:01:23.722Z,10.50
2023-04-18T06:03:50.071Z,11.10
2023-04-18T06:06:16.489Z,10.80
2023-04-18T06:08:42.850Z,10.30
2023-04-18T06:11:09.051Z,9.43
2023-04-18T06:13:36.389Z,9.80
2023-04-18T06:16:06.086Z,9.73
2023-04-18T06:18:32.380Z,9.73
2023-04-18T06:20:58.589Z,10.23
2023-04-18T06:23:24.814Z,9.73
2023-04-18T06:25:51.601Z,9.23
2023-04-18T06:28:17.728Z,9.07
2023-04-18T06:30:44.179Z,9.67
2023-04-18T06:33:11.062Z,9.20
2023-04-18T06:35:37.437Z,9.50
2023-04-18T06:38:03.683Z,9.40
2023-04-18T06:40:29.920Z,9.10
2023-04-18T06:42:56.188Z,8.67
2023-04-18T06:45:22.522Z,9.17
2023-04-18T06:47:48.737Z,8.63
2023-04-18T06:50:17.076Z,8.97
2023-04-18T06:52:44.862Z,8.83
2023-04-18T06:55:12.337Z,8.60
2023-04-18T06:57:38.720Z,8.63
2023-04-18T07:00:06.108Z,7.80
2023-04-18T07:02:32.398Z,8.43
2023-04-18T07:04:58.631Z,7.80
2023-04-18T07:07:25.891Z,7.90
2023-04-18T07:09:52.040Z,7.73
2023-04-18T07:12:18.161Z,7.60
2023-04-18T07:14:44.294Z,7.53
2023-04-18T07:17:10.442Z,8.30
2023-04-18T07:19:36.560Z,8.27
2023-04-18T07:22:02.916Z,7.90
2023-04-18T07:24:29.916Z,8.70
2023-04-18T07:26:56.350Z,8.43
2023-04-18T07:29:22.614Z,8.30
2023-04-18T07:31:49.320Z,8.80
2023-04-18T07:34:16.536Z,7.67
2023-04-18T07:36:42.719Z,7.47
2023-04-18T07:39:08.862Z,8.03
2023-04-18T07:41:35.638Z,7.67
2023-04-18T07:44:02.110Z,7.97
2023-04-18T07:46:28.645Z,7.27
2023-04-18T07:48:54.877Z,7.97
2023-04-18T07:51:21.407Z,7.30
2023-04-18T07:53:47.658Z,7.13
2023-04-18T07:56:13.767Z,8.13
2023-04-18T07:58:40.561Z,8.13
2023-04-18T08:01:08.174Z,8.60
2023-04-18T08:03:36.274Z,7.67
2023-04-18T08:06:02.973Z,8.30
2023-04-18T08:08:29.121Z,8.77
2023-04-18T08:10:55.306Z,8.40
2023-04-18T08:13:21.430Z,9.50
2023-04-18T08:15:48.419Z,9.00
2023-04-18T08:18:14.587Z,9.27
2023-04-18T08:20:40.892Z,8.80
2023-04-18T08:23:10.269Z,9.30
2023-04-18T08:25:38.602Z,9.70
2023-04-18T08:28:05.073Z,9.87
2023-04-18T08:30:31.685Z,9.07
2023-04-18T08:32:58.620Z,9.03
2023-04-18T08:35:24.852Z,9.30
2023-04-18T08:37:51.056Z,9.60
2023-04-18T08:40:17.843Z,8.93
2023-04-18T08:42:44.373Z,9.33
2023-04-18T08:45:13.422Z,8.70
2023-04-18T08:47:39.756Z,8.87
2023-04-18T08:50:08.612Z,9.40
2023-04-18T08:52:35.595Z,9.17
2023-04-18T08:55:01.999Z,9.43
2023-04-18T08:57:30.121Z,8.97
2023-04-18T08:59:56.545Z,9.00
2023-04-18T09:02:37.958Z,9.00
2023-04-18T09:05:11.609Z,8.43
2023-04-18T09:07:37.756Z,8.67
2023-04-18T09:10:04.671Z,8.70
2023-04-18T09:12:31.831Z,9.53
2023-04-18T09:15:10.857Z,8.50
2023-04-18T09:17:40.830Z,9.40
2023-04-18T09:20:09.893Z,9.00
2023-04-18T09:22:47.380Z,8.87
2023-04-18T09:25:24.485Z,9.50
2023-04-18T09:27:50.610Z,9.57
2023-04-18T09:30:29.399Z,10.30
2023-04-18T09:32:57.858Z,9.53
2023-04-18T09:35:24.868Z,9.87
2023-04-18T09:37:51.899Z,9.90
2023-04-18T09:40:19.174Z,10.10
2023-04-18T09:42:45.538Z,9.27
2023-04-18T09:45:12.506Z,9.40
2023-04-18T09:47:39.062Z,10.17
2023-04-18T09:50:06.829Z,10.53
2023-04-18T09:52:35.104Z,10.80
2023-04-18T09:55:03.594Z,11.17
2023-04-18T09:57:31.636Z,11.30
2023-04-18T10:00:07.927Z,10.07
2023-04-18T10:02:40.778Z,10.97
2023-04-18T10:05:08.344Z,10.93
2023-04-18T10:07:35.336Z,10.70
2023-04-18T10:10:02.101Z,10.27
2023-04-18T10:12:28.255Z,10.73
2023-04-18T10:14:54.809Z,10.17
2023-04-18T10:17:21.457Z,11.37
2023-04-18T10:20:04.403Z,10.37
2023-04-18T10:22:31.253Z,9.83
2023-04-18T10:24:57.611Z,10.20
2023-04-18T10:27:55.278Z,10.47
2023-04-18T10:30:51.889Z,10.67
2023-04-18T10:33:30.950Z,10.47
2023-04-18T10:36:13.492Z,10.37
2023-04-18T10:38:44.569Z,10.47
2023-04-18T10:41:19.074Z,9.70
2023-04-18T10:44:12.459Z,10.57
2023-04-18T10:46:40.104Z,9.93
2023-04-18T10:49:13.516Z,9.30
2023-04-18T10:51:39.834Z,9.93
2023-04-18T10:54:08.041Z,10.27
2023-04-18T10:56:34.189Z,10.17
2023-04-18T10:59:02.282Z,10.30
2023-04-18T11:01:32.660Z,10.53
2023-04-18T11:04:00.033Z,10.83
2023-04-18T11:06:26.877Z,11.07
2023-04-18T11:09:09.232Z,10.50
2023-04-18T11:11:35.364Z,10.87
2023-04-18T11:14:01.710Z,10.70
2023-04-18T11:16:29.854Z,9.97
2023-04-18T11:18:56.278Z,9.80
2023-04-18T11:21:27.624Z,9.93
2023-04-18T11:23:55.714Z,10.33
2023-04-18T11:26:24.171Z,9.60
2023-04-18T11:28:51.763Z,10.57
2023-04-18T11:31:18.030Z,10.17
2023-04-18T11:33:46.921Z,10.30
2023-04-18T11:36:13.250Z,10.40
2023-04-18T11:38:39.906Z,10.03
2023-04-18T11:41:11.987Z,10.13
2023-04-18T11:43:42.100Z,10.07
2023-04-18T11:46:08.265Z,10.97
2023-04-18T11:48:35.340Z,10.17
2023-04-18T11:51:02.130Z,9.97
2023-04-18T11:53:32.371Z,9.07
2023-04-18T11:55:59.105Z,9.67
2023-04-18T11:58:29.931Z,9.43
2023-04-18T12:00:56.076Z,10.10
2023-04-18T12:03:23.717Z,9.73
2023-04-18T12:05:58.025Z,9.37
2023-04-18T12:08:25.024Z,9.67
2023-04-18T12:10:52.581Z,9.27
2023-04-18T12:13:23.316Z,9.87
2023-04-18T12:15:49.820Z,9.33
2023-04-18T12:18:18.869Z,9.93
2023-04-18T12:20:49.224Z,9.23
2023-04-18T12:23:31.515Z,9.43
2023-04-18T12:26:01.385Z,9.70
2023-04-18T12:28:27.863Z,9.37
2023-04-18T12:30:54.033Z,10.07
2023-04-18T12:33:20.195Z,9.57
2023-04-18T12:35:47.792Z,9.57
2023-04-18T12:38:15.327Z,9.53
2023-04-18T12:40:42.190Z,10.27
2023-04-18T12:43:09.207Z,9.60
2023-04-18T12:45:35.348Z,10.33
2023-04-18T12:48:01.772Z,11.20
2023-04-18T12:50:27.994Z,10.50
2023-04-18T12:52:56.877Z,10.13
2023-04-18T12:55:23.651Z,10.57
2023-04-18T12:57:53.527Z,9.63
2023-04-18T13:00:19.873Z,11.00
2023-04-18T13:02:46.248Z,10.17
2023-04-18T13:05:13.540Z,10.33
2023-04-18T13:07:41.695Z,10.60
2023-04-18T13:10:09.019Z,8.93
2023-04-18T13:12:35.260Z,11.33
2023-04-18T13:15:02.806Z,11.00
2023-04-18T13:17:28.958Z,10.60
2023-04-18T13:19:55.087Z,12.30
2023-04-18T13:22:21.280Z,10.80
2023-04-18T13:24:47.571Z,11.23
2023-04-18T13:27:13.862Z,10.40
2023-04-18T13:29:41.190Z,11.60
2023-04-18T13:32:08.353Z,10.93
2023-04-18T13:34:37.877Z,10.63
2023-04-18T13:37:04.205Z,10.40
2023-04-18T13:39:32.063Z,11.00
2023-04-18T13:41:58.481Z,10.27
2023-04-18T13:44:25.131Z,11.30
2023-04-18T13:46:52.160Z,10.57
2023-04-18T13:49:18.945Z,10.87
2023-04-18T13:51:45.455Z,10.60
2023-04-18T13:54:14.483Z,9.33
2023-04-18T13:56:40.764Z,10.00
2023-04-18T13:59:06.980Z,11.10
2023-04-18T14:01:33.307Z,9.73
2023-04-18T14:03:59.914Z,9.93
2023-04-18T14:06:27.012Z,10.43
2023-04-18T14:08:53.658Z,10.67
2023-04-18T14:11:20.082Z,10.23
2023-04-18T14:13:46.425Z,10.67
2023-04-18T14:16:12.651Z,10.33
2023-04-18T14:18:38.812Z,10.53
2023-04-18T14:21:05.629Z,10.63
2023-04-18T14:23:32.450Z,9.93
2023-04-18T14:25:58.602Z,9.23
2023-04-18T14:28:25.247Z,10.27
2023-04-18T14:30:52.062Z,9.30
2023-04-18T14:33:18.314Z,9.10
2023-04-18T14:35:44.999Z,9.30
2023-04-18T14:38:11.190Z,9.13
2023-04-18T14:40:37.992Z,9.53
2023-04-18T14:43:04.110Z,9.37
2023-04-18T14:45:32.310Z,9.03
2023-04-18T14:47:58.617Z,9.53
2023-04-18T14:50:24.805Z,10.07
2023-04-18T14:52:50.979Z,9.37
2023-04-18T14:55:18.601Z,9.90
2023-04-18T14:57:45.723Z,9.10
2023-04-18T15:00:13.778Z,8.80
2023-04-18T15:02:40.418Z,9.43
2023-04-18T15:05:07.652Z,9.20
2023-04-18T15:07:35.200Z,8.67
2023-04-18T15:10:01.479Z,8.53
2023-04-18T15:12:29.105Z,8.17
2023-04-18T15:14:55.867Z,8.67
2023-04-18T15:17:22.084Z,9.43
2023-04-18T15:19:48.246Z,8.07
2023-04-18T15:22:14.393Z,8.63
2023-04-18T15:24:40.739Z,8.07
2023-04-18T15:27:07.274Z,8.90
2023-04-18T15:29:33.730Z,8.27
2023-04-18T15:32:00.703Z,8.47
2023-04-18T15:34:27.207Z,9.13
2023-04-18T15:36:53.303Z,8.20
2023-04-18T15:39:22.570Z,7.83
2023-04-18T15:41:51.409Z,8.47
2023-04-18T15:44:17.510Z,8.73
2023-04-18T15:46:43.670Z,8.00
2023-04-18T15:49:10.421Z,8.77
2023-04-18T15:51:36.567Z,8.67
2023-04-18T15:54:03.291Z,9.77
2023-04-18T15:56:31.750Z,9.90
2023-04-18T15:59:00.851Z,9.13
2023-04-18T16:01:27.121Z,9.50
2023-04-18T16:03:53.456Z,9.27
2023-04-18T16:06:22.530Z,9.80
2023-04-18T16:08:48.691Z,10.40
2023-04-18T16:11:14.973Z,10.20
2023-04-18T16:13:41.260Z,10.10
2023-04-18T16:16:07.754Z,10.73
2023-04-18T16:18:33.957Z,11.60
2023-04-18T16:21:00.200Z,9.90
2023-04-18T16:23:26.982Z,9.60
2023-04-18T16:25:54.413Z,10.50
2023-04-18T16:28:20.710Z,10.33
2023-04-18T16:30:47.100Z,10.47
2023-04-18T16:33:13.728Z,12.13
2023-04-18T16:35:40.157Z,10.37
2023-04-18T16:38:06.429Z,11.27
2023-04-18T16:40:34.387Z,10.90
2023-04-18T16:43:01.220Z,11.07
2023-04-18T16:45:27.484Z,11.27
2023-04-18T16:47:53.688Z,10.77
2023-04-18T16:50:21.998Z,11.37
2023-04-18T16:52:48.302Z,11.40
2023-04-18T16:55:14.531Z,11.10
2023-04-18T16:57:41.302Z,11.17
2023-04-18T17:00:09.514Z,11.67
2023-04-18T17:02:36.071Z,11.53
2023-04-18T17:05:02.579Z,12.03
2023-04-18T17:07:29.575Z,10.90
2023-04-18T17:09:55.861Z,11.63
2023-04-18T17:12:21.982Z,11.70
2023-04-18T17:14:48.922Z,11.27
2023-04-18T17:17:15.134Z,12.27
2023-04-18T17:19:41.457Z,12.17
2023-04-18T17:22:07.575Z,12.17
2023-04-18T17:24:33.853Z,12.17
2023-04-18T17:27:00.654Z,10.97
2023-04-18T17:29:27.007Z,12.43
2023-04-18T17:31:53.772Z,12.00
2023-04-18T17:34:20.497Z,12.10
2023-04-18T17:36:46.881Z,11.83
2023-04-18T17:39:15.493Z,12.00
2023-04-18T17:41:41.874Z,12.20
2023-04-18T17:44:09.506Z,11.97
2023-04-18T17:46:35.760Z,11.73
2023-04-18T17:49:03.545Z,11.83
2023-04-18T17:51:30.164Z,12.03
2023-04-18T17:53:56.435Z,12.67
2023-04-18T17:56:22.887Z,13.40
2023-04-18T17:58:49.021Z,12.53
2023-04-18T18:01:15.510Z,13.43
2023-04-18T18:03:42.947Z,13.03
2023-04-18T18:06:11.191Z,12.60
2023-04-18T18:08:37.362Z,13.07
2023-04-18T18:11:05.222Z,13.37
2023-04-18T18:13:31.362Z,12.40
2023-04-18T18:15:57.522Z,12.40
2023-04-18T18:18:23.841Z,13.40
2023-04-18T18:20:50.104Z,13.77
2023-04-18T18:23:17.193Z,13.53
2023-04-18T18:25:43.360Z,14.23
2023-04-18T18:28:09.589Z,14.10
2023-04-18T18:30:37.163Z,13.73
2023-04-18T18:33:03.464Z,13.77
2023-04-18T18:35:29.829Z,13.23
2023-04-18T18:37:56.111Z,14.33
2023-04-18T18:40:23.290Z,13.57
2023-04-18T18:42:52.158Z,15.40
2023-04-18T18:45:20.362Z,13.27
2023-04-18T18:47:46.578Z,13.67
2023-04-18T18:50:13.127Z,13.30
2023-04-18T18:52:39.925Z,13.60
2023-04-18T18:55:07.461Z,12.67
2023-04-18T18:57:34.276Z,13.10
2023-04-18T19:00:00.614Z,15.10
2023-04-18T19:02:27.083Z,13.93
2023-04-18T19:04:53.465Z,14.30
2023-04-18T19:07:19.847Z,13.53
2023-04-18T19:09:46.555Z,13.37
2023-04-18T19:12:12.773Z,14.27
2023-04-18T19:14:42.296Z,13.70
2023-04-18T19:17:08.938Z,12.50
2023-04-18T19:19:35.496Z,14.30
2023-04-18T19:22:01.943Z,13.47
2023-04-18T19:24:28.140Z,13.77
2023-04-18T19:26:54.514Z,13.60
2023-04-18T19:29:21.695Z,14.00
2023-04-18T19:31:48.827Z,13.87
2023-04-18T19:34:17.982Z,13.00
2023-04-18T19:36:44.444Z,13.70
2023-04-18T19:39:10.580Z,13.27
2023-04-18T19:41:36.718Z,12.87
2023-04-18T19:44:03.181Z,13.80
2023-04-18T19:46:29.548Z,13.43
2023-04-18T19:48:56.536Z,13.50
2023-04-18T19:51:22.741Z,13.03
2023-04-18T19:53:48.877Z,11.90
2023-04-18T19:56:15.051Z,13.10
2023-04-18T19:58:44.134Z,13.33
2023-04-18T20:01:11.142Z,12.40
2023-04-18T20:03:37.892Z,13.80
2023-04-18T20:06:05.390Z,13.20
2023-04-18T20:08:31.677Z,14.17
2023-04-18T20:10:57.803Z,13.27
2023-04-18T20:13:23.916Z,13.70
2023-04-18T20:15:50.381Z,13.17
2023-04-18T20:18:17.193Z,13.93
2023-04-18T20:20:43.422Z,14.47
2023-04-18T20:23:10.431Z,13.13
2023-04-18T20:25:36.696Z,13.60
2023-04-18T20:28:03.211Z,12.97
2023-04-18T20:30:29.492Z,13.43
2023-04-18T20:32:55.718Z,12.60
2023-04-18T20:35:22.174Z,13.40
2023-04-18T20:37:49.022Z,12.40
2023-04-18T20:40:16.578Z,12.73
2023-04-18T20:42:42.844Z,12.63
2023-04-18T20:45:10.173Z,13.13
2023-04-18T20:47:36.560Z,13.00
2023-04-18T20:50:02.795Z,12.13
2023-04-18T20:52:28.931Z,12.23
2023-04-18T20:54:55.079Z,11.93
2023-04-18T20:57:21.826Z,12.47
2023-04-18T20:59:48.004Z,12.13
2023-04-18T21:02:14.279Z,12.67
2023-04-18T21:04:40.737Z,12.33
2023-04-18T21:07:06.898Z,12.17
2023-04-18T21:09:35.736Z,12.53
2023-04-18T21:12:02.010Z,11.93
2023-04-18T21:14:28.771Z,12.00
2023-04-18T21:16:54.933Z,13.10
2023-04-18T21:19:21.109Z,12.43
2023-04-18T21:21:47.223Z,12.47
2023-04-18T21:24:13.608Z,12.07
2023-04-18T21:26:40.242Z,11.70
2023-04-18T21:29:06.483Z,13.00
2023-04-18T21:31:34.470Z,12.87
2023-04-18T21:34:01.898Z,12.53
2023-04-18T21:36:28.683Z,13.20
2023-04-18T21:38:55.618Z,12.97
2023-04-18T21:41:21.944Z,12.20
2023-04-18T21:43:49.017Z,12.17
2023-04-18T21:46:16.150Z,12.33
2023-04-18T21:48:44.747Z,12.83
2023-04-18T21:51:12.292Z,12.53
2023-04-18T21:53:38.569Z,12.63
2023-04-18T21:56:05.309Z,12.57
2023-04-18T21:58:31.885Z,12.40
2023-04-18T22:00:58.155Z,12.73
2023-04-18T22:03:25.668Z,13.20
2023-04-18T22:05:52.605Z,12.03
2023-04-18T22:08:19.449Z,12.60
2023-04-18T22:10:48.956Z,11.70
2023-04-18T22:13:15.965Z,12.60
2023-04-18T22:15:42.204Z,12.47
2023-04-18T22:18:08.743Z,13.10
2023-04-18T22:20:35.353Z,12.80
2023-04-18T22:23:03.375Z,12.57
2023-04-18T22:25:30.035Z,12.07
2023-04-18T22:27:56.294Z,13.20
2023-04-18T22:30:24.018Z,12.80
2023-04-18T22:32:50.272Z,12.53
2023-04-18T22:35:16.770Z,12.97
2023-04-18T22:37:43.003Z,13.50
2023-04-18T22:40:11.052Z,13.57
2023-04-18T22:42:38.636Z,12.93
2023-04-18T22:45:06.086Z,13.17
2023-04-18T22:47:32.433Z,13.50
2023-04-18T22:49:58.591Z,13.67
2023-04-18T22:52:24.968Z,14.17
2023-04-18T22:54:51.095Z,13.53
2023-04-18T22:57:17.992Z,13.53
2023-04-18T22:59:44.371Z,13.80
2023-04-18T23:02:10.611Z,13.63
2023-04-18T23:04:36.963Z,13.87
2023-04-18T23:07:03.202Z,13.27
2023-04-18T23:09:30.516Z,14.30
2023-04-18T23:11:57.395Z,13.83
2023-04-18T23:14:24.405Z,13.63
2023-04-18T23:16:50.512Z,13.57
2023-04-18T23:19:16.639Z,13.57
2023-04-18T23:21:43.872Z,15.00
2023-04-18T23:24:11.235Z,14.00
2023-04-18T23:26:37.428Z,14.53
2023-04-18T23:29:03.758Z,15.00
2023-04-18T23:31:32.012Z,14.43
2023-04-18T23:33:58.158Z,13.77
2023-04-18T23:36:24.340Z,14.27
2023-04-18T23:38:50.468Z,14.23
2023-04-18T23:41:16.587Z,13.83
2023-04-18T23:43:42.695Z,14.17
2023-04-18T23:46:08.906Z,14.00
2023-04-18T23:48:35.670Z,14.50
2023-04-18T23:51:01.816Z,14.53
2023-04-18T23:53:28.249Z,14.73
2023-04-18T23:55:54.530Z,14.80
2023-04-18T23:58:20.974Z,14.23
